Time;durP1;ratioP1;P1;durP2;ratioP2;P2;SDS_P1;SDS_P2;PMS_P1;PMS_P2;Temp;Humidity;BMP_temperature;BMP_pressure;BME280_temperature;BME280_humidity;BME280_pressure;Samples;Min_cycle;Max_cycle;Signal;HPM_P1;HPM_P2
2022/04/30 00:01:01;;;;;;;1.20;1.00;;;7.40;99.90;;;;;;5045386;28;20260;-60
2022/04/30 00:03:28;;;;;;;1.17;0.98;;;7.50;99.90;;;;;;5046272;28;20114;-60
2022/04/30 00:05:55;;;;;;;2.13;1.30;;;7.60;99.90;;;;;;5045608;28;20052;-59
2022/04/30 00:08:22;;;;;;;1.42;1.13;;;7.70;99.90;;;;;;5045934;28;20146;-59
2022/04/30 00:10:50;;;;;;;1.33;0.95;;;7.80;99.90;;;;;;5045762;28;20128;-59
2022/04/30 00:13:17;;;;;;;1.40;1.17;;;7.90;99.90;;;;;;5045762;28;20139;-59
2022/04/30 00:15:44;;;;;;;1.92;1.08;;;8.00;99.90;;;;;;5045690;28;20099;-59
2022/04/30 00:18:11;;;;;;;1.63;1.27;;;8.10;99.90;;;;;;5045451;28;20440;-59
2022/04/30 00:20:38;;;;;;;1.38;1.15;;;8.20;99.90;;;;;;5045826;28;20487;-59
2022/04/30 00:23:05;;;;;;;1.70;1.10;;;8.20;99.90;;;;;;5027770;28;20045;-59
2022/04/30 00:25:32;;;;;;;1.77;1.35;;;8.20;99.90;;;;;;5046088;28;20049;-59
2022/04/30 00:27:59;;;;;;;2.45;1.27;;;8.30;99.90;;;;;;5045187;28;20147;-60
2022/04/30 00:30:26;;;;;;;1.60;1.20;;;8.30;99.90;;;;;;5045130;28;20177;-58
2022/04/30 00:32:53;;;;;;;1.08;0.90;;;8.40;99.90;;;;;;5045186;28;20439;-58
2022/04/30 00:35:20;;;;;;;1.17;0.90;;;8.40;99.90;;;;;;5045440;28;20096;-59
2022/04/30 00:37:47;;;;;;;1.38;0.93;;;8.40;99.90;;;;;;5045325;28;20713;-59
2022/04/30 00:40:14;;;;;;;2.13;1.17;;;8.40;99.90;;;;;;5045380;28;20080;-59
2022/04/30 00:42:40;;;;;;;2.42;1.10;;;8.40;99.90;;;;;;5027435;28;20484;-59
2022/04/30 00:45:08;;;;;;;1.13;0.98;;;8.40;99.90;;;;;;5044679;28;20049;-59
2022/04/30 00:47:35;;;;;;;1.65;1.27;;;8.40;99.90;;;;;;5045219;28;20132;-59
2022/04/30 00:50:01;;;;;;;1.58;1.00;;;8.40;99.90;;;;;;5045627;28;20084;-59
2022/04/30 00:52:28;;;;;;;1.48;1.10;;;8.30;99.90;;;;;;5044877;28;20088;-59
2022/04/30 00:54:59;;;;;;;1.33;1.10;;;8.40;99.90;;;;;;5044646;28;20049;-59
2022/04/30 00:57:27;;;;;;;2.15;1.13;;;8.40;99.90;;;;;;5045258;28;20145;-59
2022/04/30 01:00:00;;;;;;;1.00;0.90;;;8.40;99.90;;;;;;5027404;28;20096;-59
2022/04/30 01:02:29;;;;;;;0.95;0.82;;;8.40;99.90;;;;;;5026486;28;20045;-59
2022/04/30 01:04:57;;;;;;;1.83;1.30;;;8.40;99.90;;;;;;5045202;28;20378;-60
2022/04/30 01:07:24;;;;;;;2.08;1.52;;;8.40;99.90;;;;;;5044553;28;20080;-60
2022/04/30 01:09:52;;;;;;;1.08;0.90;;;8.40;99.90;;;;;;5044734;28;20516;-59
2022/04/30 01:12:19;;;;;;;2.05;1.17;;;8.40;99.90;;;;;;5044223;28;20124;-60
2022/04/30 01:14:46;;;;;;;1.60;0.95;;;8.30;99.90;;;;;;5026662;28;20133;-59
2022/04/30 01:17:14;;;;;;;1.48;1.08;;;8.40;99.90;;;;;;5043840;28;20331;-60
2022/04/30 01:19:42;;;;;;;1.45;1.05;;;8.30;99.90;;;;;;5044173;28;20205;-59
2022/04/30 01:22:20;;;;;;;1.35;1.15;;;8.30;99.90;;;;;;5043869;28;20056;-59
2022/04/30 01:24:47;;;;;;;2.13;1.00;;;8.30;99.90;;;;;;5027664;28;20107;-59
2022/04/30 01:27:16;;;;;;;1.60;1.50;;;8.30;99.90;;;;;;5044068;28;20622;-59
2022/04/30 01:29:42;;;;;;;1.90;1.20;;;8.30;99.90;;;;;;5044134;28;20472;-59
2022/04/30 01:37:40;;;;;;;2.13;1.20;;;8.30;99.90;;;;;;5026325;28;20081;-59
2022/04/30 01:40:08;;;;;;;1.65;1.40;;;8.20;99.90;;;;;;5026718;28;20088;-59
2022/04/30 01:42:39;;;;;;;1.40;1.17;;;8.20;99.90;;;;;;5026733;28;20092;-59
2022/04/30 01:45:07;;;;;;;1.83;1.52;;;8.20;99.90;;;;;;5028603;28;20127;-59
2022/04/30 01:47:35;;;;;;;2.08;1.58;;;8.20;99.90;;;;;;5046566;28;20147;-62
2022/04/30 01:50:02;;;;;;;2.15;1.50;;;8.20;99.90;;;;;;5045594;28;20048;-59
2022/04/30 01:52:30;;;;;;;2.10;1.50;;;8.20;99.90;;;;;;5045728;28;20128;-59
2022/04/30 01:54:58;;;;;;;2.97;1.60;;;8.20;99.90;;;;;;5045508;28;20049;-58
2022/04/30 01:57:28;;;;;;;2.17;1.60;;;8.20;99.90;;;;;;5046450;28;20048;-58
2022/04/30 02:00:00;;;;;;;2.10;1.73;;;8.10;99.90;;;;;;5046006;28;20089;-58
2022/04/30 02:02:28;;;;;;;2.47;1.77;;;8.10;99.90;;;;;;5043372;28;20057;-60
2022/04/30 02:04:56;;;;;;;2.20;1.90;;;8.10;99.90;;;;;;5041621;28;20131;-60
2022/04/30 02:07:22;;;;;;;2.88;1.83;;;8.00;99.90;;;;;;5027102;28;20132;-58
2022/04/30 02:09:51;;;;;;;2.03;1.73;;;8.00;99.90;;;;;;5028696;28;20166;-60
2022/04/30 02:12:18;;;;;;;1.98;1.40;;;8.00;99.90;;;;;;5025471;28;20620;-57
2022/04/30 02:14:52;;;;;;;1.70;1.38;;;8.00;99.90;;;;;;5042987;28;20187;-58
2022/04/30 02:17:19;;;;;;;2.50;1.70;;;8.00;99.90;;;;;;5044795;28;20136;-57
2022/04/30 02:22:32;;;;;;;2.30;1.70;;;8.10;99.90;;;;;;5010205;28;20049;-58
2022/04/30 02:24:58;;;;;;;1.90;1.30;;;8.10;99.90;;;;;;5047598;28;20083;-58
2022/04/30 02:27:25;;;;;;;2.03;1.45;;;8.10;99.90;;;;;;5028171;28;20077;-58
2022/04/30 02:29:52;;;;;;;2.00;1.60;;;8.10;99.90;;;;;;5027735;28;20136;-59
2022/04/30 02:32:19;;;;;;;2.33;1.70;;;8.00;99.90;;;;;;5044477;28;20040;-58
2022/04/30 02:34:46;;;;;;;2.20;1.67;;;8.00;99.90;;;;;;5044229;28;20049;-59
2022/04/30 02:37:14;;;;;;;1.67;1.40;;;7.90;99.90;;;;;;5049034;28;20064;-58
2022/04/30 02:39:47;;;;;;;2.20;1.50;;;8.00;99.90;;;;;;5044984;28;20103;-59
2022/04/30 02:42:14;;;;;;;1.77;1.35;;;8.00;99.90;;;;;;5026278;28;20461;-59
2022/04/30 02:44:40;;;;;;;1.70;1.45;;;8.00;99.90;;;;;;5030954;28;20138;-58
2022/04/30 02:47:08;;;;;;;1.73;1.38;;;8.00;99.90;;;;;;5026349;28;20053;-59
2022/04/30 02:49:34;;;;;;;2.13;1.50;;;8.00;99.90;;;;;;5027191;28;20088;-58
2022/04/30 02:52:01;;;;;;;2.28;1.60;;;7.90;99.90;;;;;;5044934;28;20073;-58
2022/04/30 02:54:29;;;;;;;1.42;1.20;;;7.80;99.90;;;;;;5037145;28;20088;-59
2022/04/30 02:56:55;;;;;;;1.52;1.20;;;7.70;99.90;;;;;;5025557;28;20081;-59
2022/04/30 03:02:08;;;;;;;1.55;1.38;;;7.60;99.90;;;;;;5005459;28;20057;-59
2022/04/30 03:04:34;;;;;;;1.98;1.27;;;7.60;99.90;;;;;;5005164;28;20132;-59
2022/04/30 03:07:01;;;;;;;2.15;1.15;;;7.50;99.90;;;;;;5005054;28;20045;-59
2022/04/30 03:09:28;;;;;;;1.98;1.42;;;7.40;99.90;;;;;;5004927;28;20168;-59
2022/04/30 03:11:55;;;;;;;1.15;1.05;;;7.30;99.90;;;;;;5005528;28;20145;-58
2022/04/30 03:14:21;;;;;;;1.15;1.05;;;7.30;99.90;;;;;;5005233;28;20078;-59
2022/04/30 03:22:19;;;;;;;1.85;1.10;;;7.00;99.90;;;;;;5009038;28;20137;-59
2022/04/30 03:24:46;;;;;;;1.65;1.08;;;7.00;99.90;;;;;;5009019;28;20125;-59
2022/04/30 03:27:17;;;;;;;0.95;0.85;;;6.90;99.90;;;;;;5009313;28;20152;-59
2022/04/30 03:29:44;;;;;;;0.85;0.77;;;6.80;99.90;;;;;;5009129;28;20056;-58
2022/04/30 03:32:11;;;;;;;2.25;1.08;;;6.70;99.90;;;;;;5008596;28;20042;-59
2022/04/30 03:34:38;;;;;;;1.42;1.20;;;6.70;99.90;;;;;;5008385;28;20057;-59
2022/04/30 03:37:05;;;;;;;1.17;0.95;;;6.60;99.90;;;;;;4997414;28;20053;-58
2022/04/30 03:39:32;;;;;;;2.33;1.33;;;6.50;99.90;;;;;;4989485;28;20216;-59
2022/04/30 03:41:59;;;;;;;1.30;1.02;;;6.40;99.90;;;;;;4999985;28;20056;-58
2022/04/30 03:44:26;;;;;;;1.60;1.30;;;6.40;99.90;;;;;;5008938;28;20089;-58
2022/04/30 03:46:52;;;;;;;1.92;1.15;;;6.40;99.90;;;;;;5008640;28;20054;-59
2022/04/30 03:49:19;;;;;;;1.33;0.95;;;6.30;99.90;;;;;;5008468;28;20066;-59
2022/04/30 03:51:46;;;;;;;2.22;1.10;;;6.30;99.90;;;;;;5008008;28;20057;-60
2022/04/30 03:54:12;;;;;;;1.60;1.10;;;6.30;99.90;;;;;;5008632;28;20085;-59
2022/04/30 03:56:39;;;;;;;1.63;1.33;;;6.30;99.90;;;;;;5008899;28;20060;-59
2022/04/30 03:59:06;;;;;;;1.00;0.90;;;6.30;99.90;;;;;;5008774;28;20096;-59
2022/04/30 04:01:35;;;;;;;1.00;0.90;;;6.30;99.90;;;;;;5041796;28;20052;-60
2022/04/30 04:04:02;;;;;;;1.35;0.93;;;6.20;99.90;;;;;;5047380;28;20080;-56
2022/04/30 04:06:29;;;;;;;1.73;1.20;;;6.10;99.90;;;;;;5030659;28;20885;-59
2022/04/30 04:08:57;;;;;;;1.65;1.17;;;6.00;99.90;;;;;;5030529;28;20459;-59
2022/04/30 04:11:26;;;;;;;1.85;0.98;;;6.00;99.90;;;;;;5048431;28;20581;-59
2022/04/30 04:19:26;;;;;;;1.23;0.90;;;5.90;99.90;;;;;;5036059;28;20084;-59
2022/04/30 04:21:53;;;;;;;1.48;1.17;;;5.80;99.90;;;;;;5047756;28;20612;-59
2022/04/30 04:27:05;;;;;;;1.27;1.05;;;5.70;99.90;;;;;;5048089;28;20527;-59
2022/04/30 04:29:32;;;;;;;1.83;1.35;;;5.70;99.90;;;;;;5047493;28;20139;-59
2022/04/30 04:31:59;;;;;;;1.45;1.17;;;5.70;99.90;;;;;;5047084;28;20059;-59
2022/04/30 04:34:26;;;;;;;1.45;1.25;;;5.70;99.90;;;;;;5047089;28;20053;-60
2022/04/30 04:36:52;;;;;;;1.77;1.42;;;5.70;99.90;;;;;;5016674;28;20103;-60
2022/04/30 04:39:19;;;;;;;1.80;1.33;;;5.70;99.90;;;;;;5022794;28;20140;-60
2022/04/30 04:41:46;;;;;;;1.92;1.30;;;5.70;99.90;;;;;;5030869;28;20118;-59
2022/04/30 04:44:12;;;;;;;1.73;1.20;;;5.80;99.90;;;;;;5024675;28;20492;-59
2022/04/30 04:46:39;;;;;;;1.73;1.20;;;5.80;99.90;;;;;;5042389;28;20138;-58
2022/04/30 04:49:06;;;;;;;1.17;0.93;;;5.90;99.90;;;;;;5040962;28;20052;-59
2022/04/30 04:51:36;;;;;;;1.27;1.17;;;5.90;99.90;;;;;;5023887;28;20140;-59
2022/04/30 04:54:03;;;;;;;1.45;1.10;;;6.00;99.90;;;;;;5044248;28;20147;-59
2022/04/30 04:56:30;;;;;;;1.63;1.10;;;6.00;99.90;;;;;;5045624;28;20162;-59
2022/04/30 04:58:57;;;;;;;1.60;1.15;;;6.10;99.90;;;;;;5045024;28;20091;-59
2022/04/30 05:01:24;;;;;;;1.75;1.33;;;6.10;99.90;;;;;;5033452;28;20057;-59
2022/04/30 05:03:52;;;;;;;1.90;1.45;;;6.10;99.90;;;;;;5035744;28;20048;-60
2022/04/30 05:06:19;;;;;;;2.60;1.85;;;6.10;99.90;;;;;;5034129;28;20049;-59
2022/04/30 05:08:46;;;;;;;1.60;1.35;;;6.20;99.90;;;;;;5034336;28;20141;-59
2022/04/30 05:11:13;;;;;;;1.92;1.60;;;6.20;99.90;;;;;;5034714;28;20139;-60
2022/04/30 05:13:39;;;;;;;2.25;1.77;;;6.20;99.90;;;;;;5034652;28;20046;-59
2022/04/30 05:16:06;;;;;;;2.10;1.52;;;6.30;99.90;;;;;;5033827;28;20150;-59
2022/04/30 05:18:33;;;;;;;2.13;1.65;;;6.30;99.90;;;;;;5033680;28;20041;-60
2022/04/30 05:20:59;;;;;;;1.85;1.27;;;6.30;99.90;;;;;;5030913;28;20152;-59
2022/04/30 05:23:26;;;;;;;2.85;1.80;;;6.40;99.90;;;;;;5029068;28;20484;-59
2022/04/30 05:25:54;;;;;;;2.75;1.60;;;6.50;99.90;;;;;;5013437;28;20136;-61
2022/04/30 05:28:20;;;;;;;2.58;1.80;;;6.50;99.90;;;;;;5031646;28;20049;-59
2022/04/30 05:30:47;;;;;;;2.67;1.90;;;6.60;99.90;;;;;;5029925;28;20157;-59
2022/04/30 05:33:14;;;;;;;2.00;1.70;;;6.60;99.90;;;;;;5033099;28;20622;-59
2022/04/30 05:35:40;;;;;;;1.60;1.35;;;6.70;99.90;;;;;;5023749;28;20135;-59
2022/04/30 05:38:07;;;;;;;2.35;1.40;;;6.70;99.90;;;;;;5025297;28;20052;-58
2022/04/30 05:40:34;;;;;;;1.33;1.23;;;6.80;99.90;;;;;;5041889;28;20159;-59
2022/04/30 05:43:00;;;;;;;1.63;1.23;;;6.80;99.90;;;;;;5041423;28;20542;-59
2022/04/30 05:45:27;;;;;;;1.83;1.60;;;6.80;99.90;;;;;;5041313;28;20088;-59
2022/04/30 05:47:54;;;;;;;1.35;1.20;;;6.80;99.90;;;;;;5040525;28;20168;-60
2022/04/30 05:50:21;;;;;;;1.33;1.00;;;6.80;99.90;;;;;;5039868;28;20580;-59
2022/04/30 05:52:48;;;;;;;1.35;1.13;;;6.80;99.90;;;;;;5040722;28;20044;-59
2022/04/30 05:55:15;;;;;;;1.30;1.10;;;6.90;99.90;;;;;;5040612;28;20132;-59
2022/04/30 05:57:41;;;;;;;1.83;1.30;;;6.90;99.90;;;;;;5040968;28;20052;-59
2022/04/30 06:00:09;;;;;;;1.33;1.00;;;6.90;99.90;;;;;;5039869;28;20156;-59
2022/04/30 06:02:36;;;;;;;1.63;1.10;;;7.00;99.90;;;;;;5040176;28;20052;-60
2022/04/30 06:05:03;;;;;;;1.42;0.90;;;7.00;99.90;;;;;;5040260;28;20056;-59
2022/04/30 06:07:30;;;;;;;1.15;1.00;;;7.00;99.90;;;;;;5040298;28;20566;-59
2022/04/30 06:09:57;;;;;;;1.60;1.05;;;7.10;99.90;;;;;;5040007;28;20496;-60
2022/04/30 06:12:23;;;;;;;0.75;0.75;;;7.10;99.90;;;;;;5039907;28;20064;-59
2022/04/30 06:14:50;;;;;;;1.27;1.10;;;7.20;99.90;;;;;;5040393;28;20084;-60
2022/04/30 06:17:17;;;;;;;1.70;1.10;;;7.20;99.90;;;;;;5040402;28;20132;-60
2022/04/30 06:19:43;;;;;;;1.98;1.40;;;7.20;99.90;;;;;;5040127;28;20483;-59
2022/04/30 06:22:11;;;;;;;1.70;1.17;;;7.30;99.90;;;;;;5040480;28;20084;-60
2022/04/30 06:24:38;;;;;;;1.80;1.23;;;7.40;99.90;;;;;;5039871;28;20136;-59
2022/04/30 06:27:05;;;;;;;1.90;1.27;;;7.40;99.90;;;;;;5039863;28;20049;-60
2022/04/30 06:29:32;;;;;;;1.92;1.38;;;7.50;99.90;;;;;;5035779;28;20140;-59
2022/04/30 06:31:59;;;;;;;1.90;1.52;;;7.50;99.90;;;;;;5028530;28;20381;-60
2022/04/30 06:34:26;;;;;;;1.42;1.15;;;7.60;99.90;;;;;;5039158;28;20137;-60
2022/04/30 06:36:53;;;;;;;1.40;1.10;;;7.60;99.90;;;;;;5039248;28;20162;-59
2022/04/30 06:39:19;;;;;;;2.20;1.20;;;7.70;99.90;;;;;;5039162;28;20048;-60
2022/04/30 06:41:46;;;;;;;1.10;0.95;;;7.70;99.90;;;;;;5038266;28;20055;-59
2022/04/30 06:44:13;;;;;;;1.83;1.30;;;7.70;99.90;;;;;;5039298;28;20147;-59
2022/04/30 06:46:40;;;;;;;1.30;1.00;;;7.80;99.90;;;;;;5039490;28;20140;-60
2022/04/30 06:49:06;;;;;;;1.63;1.30;;;7.80;99.90;;;;;;5038465;28;20587;-60
2022/04/30 06:51:33;;;;;;;1.50;1.02;;;7.90;99.90;;;;;;5037452;28;20132;-59
2022/04/30 06:59:36;;;;;;;1.45;1.25;;;7.90;99.90;;;;;;5034478;28;20308;-58
2022/04/30 07:02:11;;;;;;;2.30;1.70;;;8.00;99.90;;;;;;5038695;28;20049;-59
2022/04/30 07:04:42;;;;;;;1.98;1.42;;;8.10;99.90;;;;;;5039624;28;20575;-60
2022/04/30 07:07:09;;;;;;;2.13;1.55;;;8.20;99.90;;;;;;5037496;28;20052;-59
2022/04/30 07:09:37;;;;;;;1.67;1.17;;;8.20;99.90;;;;;;5024324;28;20845;-60
2022/04/30 07:12:06;;;;;;;3.05;1.58;;;8.30;99.90;;;;;;5039352;28;20465;-59
2022/04/30 07:14:37;;;;;;;2.00;1.33;;;8.30;99.90;;;;;;5039686;28;20426;-59
2022/04/30 07:17:08;;;;;;;1.88;1.65;;;8.40;99.90;;;;;;5037664;28;20144;-59
2022/04/30 07:19:35;;;;;;;1.58;1.20;;;8.40;99.90;;;;;;5038874;28;20049;-59
2022/04/30 07:22:02;;;;;;;1.92;1.70;;;8.40;99.90;;;;;;5039518;28;20063;-59
2022/04/30 07:24:31;;;;;;;1.85;1.40;;;8.50;99.90;;;;;;5038334;28;20083;-59
2022/04/30 07:26:57;;;;;;;2.20;1.60;;;8.50;99.90;;;;;;5022201;28;20141;-59
2022/04/30 07:29:24;;;;;;;1.88;1.52;;;8.50;99.90;;;;;;5039723;28;20331;-59
2022/04/30 07:31:51;;;;;;;1.33;1.20;;;8.60;99.90;;;;;;5039512;28;20131;-59
2022/04/30 07:34:18;;;;;;;1.75;1.45;;;8.60;99.90;;;;;;5038532;28;20050;-59
2022/04/30 07:36:44;;;;;;;1.52;1.20;;;8.70;99.90;;;;;;5039246;28;20102;-59
2022/04/30 07:39:11;;;;;;;1.60;1.30;;;8.70;99.90;;;;;;5039162;28;20460;-59
2022/04/30 07:41:38;;;;;;;1.80;1.50;;;8.70;99.90;;;;;;5039263;28;20096;-59
2022/04/30 07:44:05;;;;;;;1.50;1.33;;;8.80;99.90;;;;;;5039364;28;20134;-59
2022/04/30 07:46:31;;;;;;;1.70;1.27;;;8.80;99.90;;;;;;5039236;28;20595;-59
2022/04/30 07:48:58;;;;;;;1.35;1.20;;;8.80;99.90;;;;;;5038289;28;20124;-59
2022/04/30 07:51:38;;;;;;;1.80;1.30;;;8.90;99.90;;;;;;5038886;28;20587;-59
2022/04/30 07:54:05;;;;;;;1.42;1.25;;;8.90;99.90;;;;;;5039303;28;20171;-59
2022/04/30 07:56:32;;;;;;;2.50;1.30;;;8.90;99.90;;;;;;5039849;28;20136;-59
2022/04/30 07:58:59;;;;;;;1.55;1.25;;;9.00;99.90;;;;;;5021769;28;20119;-60
2022/04/30 08:01:26;;;;;;;1.67;1.33;;;9.00;99.90;;;;;;5037920;28;20168;-60
2022/04/30 08:03:53;;;;;;;1.45;1.25;;;9.10;99.90;;;;;;5038422;28;20131;-59
2022/04/30 08:06:19;;;;;;;1.52;1.42;;;9.20;99.90;;;;;;5042730;28;20165;-59
2022/04/30 08:08:46;;;;;;;2.20;1.42;;;9.20;99.90;;;;;;5042827;28;20041;-59
2022/04/30 08:11:13;;;;;;;2.25;1.60;;;9.20;99.90;;;;;;5043218;28;20092;-59
2022/04/30 08:13:40;;;;;;;1.75;1.20;;;9.30;99.90;;;;;;5042245;28;20071;-60
2022/04/30 08:16:09;;;;;;;2.75;1.83;;;9.40;99.90;;;;;;5042883;28;20086;-60
2022/04/30 08:18:39;;;;;;;2.92;2.22;;;9.40;99.90;;;;;;5042259;28;20468;-59
2022/04/30 08:21:06;;;;;;;2.15;1.50;;;9.40;99.90;;;;;;5042807;28;20530;-59
2022/04/30 08:23:33;;;;;;;2.30;1.90;;;9.40;99.90;;;;;;5042025;28;20090;-59
2022/04/30 08:26:01;;;;;;;1.98;1.35;;;9.50;99.90;;;;;;5042049;28;20143;-60
2022/04/30 08:28:28;;;;;;;1.92;1.63;;;9.60;99.90;;;;;;5042150;28;20152;-59
2022/04/30 08:30:56;;;;;;;2.58;1.52;;;9.60;99.90;;;;;;5042095;28;20055;-60
2022/04/30 08:33:25;;;;;;;2.85;1.55;;;9.70;99.90;;;;;;5040948;28;20048;-60
2022/04/30 08:35:53;;;;;;;2.10;1.90;;;9.70;99.90;;;;;;5042383;28;20045;-60
2022/04/30 08:38:20;;;;;;;2.70;1.73;;;9.80;99.90;;;;;;5041263;28;20136;-59
2022/04/30 08:40:47;;;;;;;2.03;1.58;;;9.80;99.90;;;;;;5042306;28;20070;-59
2022/04/30 08:43:16;;;;;;;1.98;1.55;;;9.90;99.90;;;;;;5042230;28;20474;-60
2022/04/30 08:45:45;;;;;;;1.80;1.52;;;10.00;99.90;;;;;;5042436;28;20509;-59
2022/04/30 08:48:13;;;;;;;2.20;1.73;;;10.00;99.90;;;;;;5040886;28;20099;-60
2022/04/30 08:50:41;;;;;;;1.60;1.50;;;10.10;99.90;;;;;;5042363;28;20147;-60
2022/04/30 08:53:08;;;;;;;2.45;1.65;;;10.10;99.90;;;;;;5040903;28;20135;-60
2022/04/30 08:55:35;;;;;;;2.22;1.83;;;10.10;99.90;;;;;;5041823;28;20103;-59
2022/04/30 08:58:02;;;;;;;2.00;1.73;;;10.10;99.90;;;;;;5041717;28;20110;-59
2022/04/30 09:00:29;;;;;;;2.85;1.80;;;10.20;99.90;;;;;;5041412;28;20122;-60
2022/04/30 09:02:58;;;;;;;2.30;2.10;;;10.30;99.90;;;;;;5040753;28;20145;-60
2022/04/30 09:05:32;;;;;;;2.08;1.63;;;10.30;99.90;;;;;;5044380;28;20049;-59
2022/04/30 09:07:59;;;;;;;2.10;1.80;;;10.30;99.90;;;;;;5042689;28;20139;-59
2022/04/30 09:10:30;;;;;;;2.40;1.75;;;10.40;99.90;;;;;;5045007;28;20096;-59
2022/04/30 09:13:07;;;;;;;1.98;1.77;;;10.50;99.90;;;;;;5026095;28;20091;-59
2022/04/30 09:15:34;;;;;;;2.00;1.60;;;10.60;99.90;;;;;;5044713;28;20476;-59
2022/04/30 09:18:02;;;;;;;2.45;1.50;;;10.60;99.90;;;;;;5043928;28;20488;-59
2022/04/30 09:20:30;;;;;;;2.47;1.98;;;10.70;99.90;;;;;;5045078;28;20176;-59
2022/04/30 09:22:57;;;;;;;2.28;1.70;;;10.70;99.90;;;;;;5043845;28;20045;-59
2022/04/30 09:25:24;;;;;;;2.08;1.65;;;10.80;99.90;;;;;;5026847;28;20418;-59
2022/04/30 09:28:01;;;;;;;2.03;1.67;;;10.80;99.90;;;;;;5044143;28;20500;-59
2022/04/30 09:30:29;;;;;;;2.15;1.70;;;11.00;99.90;;;;;;5044376;28;20136;-58
2022/04/30 09:33:02;;;;;;;1.80;1.45;;;11.00;99.90;;;;;;5043228;28;20169;-60
2022/04/30 09:38:15;;;;;;;1.55;1.38;;;11.10;99.90;;;;;;5043506;28;20053;-61
2022/04/30 09:40:55;;;;;;;1.50;1.30;;;11.20;99.90;;;;;;5044690;28;20061;-58
2022/04/30 09:43:30;;;;;;;1.80;1.58;;;11.40;99.90;;;;;;5043805;28;20106;-58
2022/04/30 09:46:06;;;;;;;1.73;1.50;;;11.50;99.90;;;;;;5027935;28;20459;-58
2022/04/30 09:54:06;;;;;;;2.63;2.15;;;11.70;99.90;;;;;;5023518;28;20073;-61
2022/04/30 09:56:36;;;;;;;2.28;2.08;;;11.90;99.90;;;;;;5038009;28;20080;-59
2022/04/30 09:59:05;;;;;;;2.65;1.92;;;11.90;99.90;;;;;;5043424;28;20037;-59
2022/04/30 10:01:34;;;;;;;2.50;1.98;;;11.90;99.90;;;;;;5043085;28;20057;-59
2022/04/30 10:04:08;;;;;;;3.78;2.00;;;11.90;99.90;;;;;;5023165;28;20077;-57
2022/04/30 10:06:36;;;;;;;1.50;1.40;;;12.00;99.90;;;;;;5025568;28;20103;-61
2022/04/30 10:09:09;;;;;;;1.90;1.50;;;12.20;99.90;;;;;;5049580;28;20164;-60
2022/04/30 10:12:11;;;;;;;2.03;1.63;;;12.30;99.90;;;;;;5026634;28;20053;-61
2022/04/30 10:14:54;;;;;;;1.98;1.70;;;12.40;99.90;;;;;;5037822;28;20142;-60
2022/04/30 10:17:23;;;;;;;2.08;1.60;;;12.50;99.90;;;;;;5041013;28;20164;-60
2022/04/30 10:20:07;;;;;;;2.38;1.70;;;12.50;99.90;;;;;;5024176;28;20524;-60
2022/04/30 10:22:35;;;;;;;;;;;12.50;99.90;;;;;;5042961;28;20045;-60
2022/04/30 10:25:02;;;;;;;1.63;1.33;;;12.60;99.90;;;;;;5025395;28;19974;-60
2022/04/30 10:27:43;;;;;;;2.08;1.70;;;12.70;99.90;;;;;;5042989;28;20045;-60
2022/04/30 10:30:20;;;;;;;2.17;1.52;;;12.80;99.90;;;;;;5043505;28;20179;-60
2022/04/30 10:33:00;;;;;;;2.13;1.92;;;12.90;99.90;;;;;;5042570;28;20087;-60
2022/04/30 10:35:28;;;;;;;2.22;1.40;;;13.10;99.90;;;;;;5036089;28;20049;-60
2022/04/30 10:38:25;;;;;;;1.80;1.48;;;13.20;99.90;;;;;;5038185;28;20506;-60
2022/04/30 10:40:52;;;;;;;3.70;1.60;;;13.20;99.90;;;;;;5040548;28;20159;-61
2022/04/30 10:43:31;;;;;;;2.10;1.90;;;13.20;99.90;;;;;;5030033;28;20462;-60
2022/04/30 10:45:59;;;;;;;2.25;1.90;;;13.30;99.90;;;;;;5041918;28;20053;-60
2022/04/30 10:48:27;;;;;;;2.40;2.03;;;13.40;99.90;;;;;;5036381;28;20114;-60
2022/04/30 10:51:11;;;;;;;2.78;2.03;;;13.30;99.90;;;;;;5033921;28;20155;-61
2022/04/30 10:53:41;;;;;;;2.80;2.15;;;13.40;99.90;;;;;;5041864;28;20086;-60
2022/04/30 10:56:08;;;;;;;3.05;2.13;;;13.40;99.90;;;;;;5030002;28;20080;-60
2022/04/30 10:58:36;;;;;;;2.58;2.30;;;13.50;99.90;;;;;;5043104;28;20123;-60
2022/04/30 11:01:16;;;;;;;3.00;2.40;;;13.50;99.90;;;;;;5042616;28;20136;-60
2022/04/30 11:03:47;;;;;;;4.90;2.75;;;13.50;99.90;;;;;;5042505;28;20072;-60
2022/04/30 11:06:21;;;;;;;3.33;2.63;;;13.60;99.90;;;;;;5022795;28;20054;-59
2022/04/30 11:09:01;;;;;;;3.05;2.38;;;13.70;99.90;;;;;;5038150;28;20453;-59
2022/04/30 11:11:28;;;;;;;3.30;3.00;;;13.70;99.90;;;;;;5042727;28;20079;-60
2022/04/30 11:14:02;;;;;;;3.30;2.90;;;13.80;99.90;;;;;;5041211;28;20542;-59
2022/04/30 11:16:41;;;;;;;4.55;4.13;;;13.90;99.90;;;;;;5038337;28;20180;-59
2022/04/30 11:19:10;;;;;;;3.45;3.00;;;14.10;99.90;;;;;;5038733;28;20091;-59
2022/04/30 11:21:42;;;;;;;3.22;2.47;;;14.20;99.90;;;;;;5040882;28;20063;-59
2022/04/30 11:24:09;;;;;;;2.80;2.15;;;14.40;99.90;;;;;;5024623;28;20057;-60
2022/04/30 11:26:40;;;;;;;3.42;2.17;;;14.70;99.90;;;;;;5024881;28;20052;-59
2022/04/30 11:29:10;;;;;;;2.50;1.95;;;15.10;99.90;;;;;;5040750;28;20048;-60
2022/04/30 11:31:37;;;;;;;2.60;2.17;;;15.60;98.10;;;;;;5040450;28;20136;-60
2022/04/30 11:34:11;;;;;;;2.10;1.90;;;16.00;98.30;;;;;;5041388;28;20049;-58
2022/04/30 11:36:49;;;;;;;2.00;1.63;;;16.40;97.40;;;;;;5041715;28;20164;-60
2022/04/30 11:39:16;;;;;;;2.15;1.60;;;16.60;96.60;;;;;;5043419;28;20052;-60
2022/04/30 11:41:48;;;;;;;1.60;1.40;;;17.00;96.40;;;;;;5046389;28;20136;-61
2022/04/30 11:44:16;;;;;;;1.45;1.35;;;17.20;95.30;;;;;;5044957;28;20507;-60
2022/04/30 11:46:44;;;;;;;1.73;1.50;;;17.50;94.80;;;;;;5042270;28;20131;-60
2022/04/30 11:49:15;;;;;;;1.63;1.45;;;17.70;93.20;;;;;;5037575;28;20049;-61
2022/04/30 11:52:02;;;;;;;1.63;1.45;;;17.90;92.90;;;;;;5036044;28;20044;-58
2022/04/30 11:54:29;;;;;;;1.48;1.30;;;17.90;92.60;;;;;;4999438;28;20467;-58
2022/04/30 11:57:02;;;;;;;2.40;1.55;;;18.00;92.20;;;;;;5017116;28;20132;-59
2022/04/30 11:59:38;;;;;;;1.15;1.05;;;18.40;92.80;;;;;;5035868;28;20080;-60
2022/04/30 12:02:10;;;;;;;1.35;1.25;;;18.90;91.80;;;;;;5043558;28;20072;-60
2022/04/30 12:04:41;;;;;;;1.70;1.40;;;19.10;91.20;;;;;;5024334;28;20045;-59
2022/04/30 12:07:09;;;;;;;2.38;1.80;;;19.20;90.00;;;;;;5040747;28;20477;-59
2022/04/30 12:09:39;;;;;;;1.70;1.50;;;19.10;87.20;;;;;;5038662;28;20125;-59
2022/04/30 12:12:21;;;;;;;1.40;1.30;;;19.40;90.10;;;;;;5033677;28;20528;-59
2022/04/30 12:14:48;;;;;;;1.83;1.33;;;19.70;85.20;;;;;;5025589;28;20081;-59
2022/04/30 12:17:16;;;;;;;1.30;1.10;;;19.70;85.00;;;;;;5025431;28;20080;-59
2022/04/30 12:25:15;;;;;;;1.35;1.23;;;20.80;82.20;;;;;;5040732;28;20087;-60
2022/04/30 12:27:54;;;;;;;1.38;1.27;;;21.00;80.50;;;;;;5036885;28;20148;-59
2022/04/30 12:30:52;;;;;;;1.20;1.10;;;21.30;80.10;;;;;;5025784;28;20189;-59
2022/04/30 12:33:19;;;;;;;1.35;1.10;;;21.40;78.50;;;;;;5039189;28;20064;-59
2022/04/30 12:35:53;;;;;;;1.52;1.15;;;21.70;77.30;;;;;;5041167;28;20072;-60
2022/04/30 12:38:19;;;;;;;1.20;1.10;;;22.00;74.20;;;;;;5041339;28;20189;-59
2022/04/30 12:40:50;;;;;;;2.00;1.05;;;22.00;72.00;;;;;;5040987;28;20055;-59
2022/04/30 12:43:17;;;;;;;0.90;0.82;;;22.40;74.60;;;;;;5040398;28;20621;-60
2022/04/30 12:45:44;;;;;;;1.15;1.00;;;22.90;72.50;;;;;;5044465;28;20563;-60
2022/04/30 12:48:11;;;;;;;1.55;1.20;;;23.00;71.00;;;;;;5042315;28;20152;-60
2022/04/30 12:50:38;;;;;;;0.98;0.88;;;23.30;71.80;;;;;;5031919;28;20080;-60
2022/04/30 12:53:11;;;;;;;1.05;0.90;;;23.70;70.80;;;;;;5036375;28;20242;-60
2022/04/30 12:55:38;;;;;;;0.70;0.70;;;24.30;68.70;;;;;;5036686;28;20091;-60
2022/04/30 12:58:06;;;;;;;1.10;1.00;;;24.50;64.30;;;;;;5041978;28;20137;-60
2022/04/30 13:00:35;;;;;;;1.42;1.13;;;24.30;63.30;;;;;;5040981;28;20049;-60
2022/04/30 13:03:03;;;;;;;1.20;1.10;;;23.90;61.90;;;;;;5040803;28;20503;-60
2022/04/30 13:05:30;;;;;;;1.10;0.90;;;23.90;62.50;;;;;;5044218;28;20076;-59
2022/04/30 13:07:57;;;;;;;0.77;0.77;;;23.80;62.00;;;;;;5043372;28;20147;-60
2022/04/30 13:13:31;;;;;;;1.38;1.00;;;24.20;64.40;;;;;;5031634;28;20056;-59
2022/04/30 13:16:00;;;;;;;1.20;1.10;;;24.80;62.20;;;;;;5039802;28;20462;-60
2022/04/30 13:18:28;;;;;;;1.00;0.90;;;25.40;61.60;;;;;;5024124;28;20049;-60
2022/04/30 13:20:54;;;;;;;1.08;0.75;;;25.50;58.30;;;;;;5020160;28;20069;-60
2022/04/30 13:23:21;;;;;;;1.50;1.00;;;25.90;59.60;;;;;;5041462;28;20195;-60
2022/04/30 13:25:48;;;;;;;0.82;0.80;;;26.00;58.30;;;;;;5026939;28;20080;-60
2022/04/30 13:28:15;;;;;;;0.80;0.80;;;26.10;57.10;;;;;;5044440;28;20107;-60
2022/04/30 13:30:41;;;;;;;0.80;0.80;;;26.30;57.40;;;;;;5027068;28;20053;-60
2022/04/30 13:33:08;;;;;;;1.15;1.00;;;26.50;56.90;;;;;;5040989;28;20466;-60
2022/04/30 13:35:35;;;;;;;0.65;0.65;;;26.70;55.50;;;;;;5041803;28;20081;-60
2022/04/30 13:38:02;;;;;;;0.68;0.68;;;26.90;54.70;;;;;;5041032;28;20139;-60
2022/04/30 13:40:29;;;;;;;0.60;0.60;;;27.10;54.50;;;;;;5044734;28;20053;-60
2022/04/30 13:42:55;;;;;;;0.52;0.50;;;27.00;52.60;;;;;;5043283;28;20051;-60
2022/04/30 13:45:22;;;;;;;0.77;0.70;;;27.00;52.30;;;;;;5042910;28;20053;-60
2022/04/30 13:47:50;;;;;;;0.70;0.70;;;27.10;53.60;;;;;;5041620;28;20140;-60